Time;durP1;ratioP1;P1;durP2;ratioP2;P2;SDS_P1;SDS_P2;PMS_P1;PMS_P2;Temp;Humidity;BMP_temperature;BMP_pressure;BME280_temperature;BME280_humidity;BME280_pressure;Samples;Min_cycle;Max_cycle;Signal;HPM_P1;HPM_P2
2022/08/08 00:00:20;;;;;;;998.42;933.22;;;;;;;20.32;40.15;101852.28;691394;28;135906;-57
2022/08/08 00:00:45;;;;;;;998.10;932.92;;;;;;;20.30;40.17;101851.69;694682;28;45204;-57
2022/08/08 00:01:14;;;;;;;1001.92;936.63;;;;;;;20.32;40.01;101854.22;695034;28;38666;-58
2022/08/08 00:01:39;;;;;;;1008.53;942.97;;;;;;;20.33;40.08;101851.25;691578;28;136160;-58
2022/08/08 00:02:07;;;;;;;995.92;930.78;;;;;;;20.34;40.04;101857.56;690761;28;134763;-58
2022/08/08 00:02:34;;;;;;;996.10;930.95;;;;;;;20.34;39.98;101854.81;691679;28;136262;-56
2022/08/08 00:02:58;;;;;;;985.90;921.20;;;;;;;20.34;39.86;101861.19;691528;28;136634;-57
2022/08/08 00:03:22;;;;;;;997.22;932.13;;;;;;;20.34;40.08;101852.09;693193;28;90711;-57
2022/08/08 00:03:50;;;;;;;997.75;932.55;;;;;;;20.35;39.86;101853.78;692904;28;92375;-57
2022/08/08 00:04:15;;;;;;;999.78;934.50;;;;;;;20.31;40.48;101856.13;691069;28;137546;-57
2022/08/08 00:04:40;;;;;;;993.60;928.60;;;;;;;20.33;40.05;101859.47;692408;28;114971;-56
2022/08/08 00:05:07;;;;;;;987.72;922.92;;;;;;;20.33;39.99;101853.16;692150;28;115972;-57
2022/08/08 00:05:35;;;;;;;1001.25;936.00;;;;;;;20.31;40.03;101856.13;691567;28;136312;-57
2022/08/08 00:06:01;;;;;;;998.15;932.95;;;;;;;20.28;40.04;101852.94;688503;28;137397;-57
2022/08/08 00:06:37;;;;;;;990.15;925.22;;;;;;;20.31;40.13;101850.63;686170;28;135852;-57
2022/08/08 00:07:06;;;;;;;994.35;929.17;;;;;;;20.30;40.05;101861.81;684123;28;139335;-58
2022/08/08 00:07:32;;;;;;;999.38;934.17;;;;;;;20.28;39.99;101855.69;685891;28;135789;-56
2022/08/08 00:07:58;;;;;;;991.28;926.30;;;;;;;20.26;40.22;101855.06;687808;28;136467;-57
2022/08/08 00:08:24;;;;;;;991.67;926.72;;;;;;;20.26;40.18;101860.53;689986;28;136424;-57
2022/08/08 00:08:51;;;;;;;995.72;930.65;;;;;;;20.22;40.12;101860.16;691284;28;138173;-58
2022/08/08 00:09:21;;;;;;;990.78;925.88;;;;;;;20.21;40.26;101857.63;691625;28;137900;-56
2022/08/08 00:09:51;;;;;;;989.42;924.53;;;;;;;20.19;40.22;101860.56;690751;28;159074;-56
2022/08/08 00:10:15;;;;;;;998.10;932.90;;;;;;;20.17;40.31;101860.78;691327;28;136056;-57
2022/08/08 00:10:42;;;;;;;1001.53;936.22;;;;;;;20.17;40.23;101859.91;693149;28;90326;-58
2022/08/08 00:11:10;;;;;;;997.95;932.70;;;;;;;20.16;40.09;101852.78;691535;28;138123;-55
2022/08/08 00:11:34;;;;;;;1003.75;938.38;;;;;;;20.17;40.42;101852.56;691627;28;136163;-56
2022/08/08 00:11:59;;;;;;;992.38;927.38;;;;;;;20.18;40.40;101856.13;693044;28;69429;-57
2022/08/08 00:12:26;;;;;;;995.13;929.92;;;;;;;20.17;40.34;101854.44;691522;28;138718;-56
2022/08/08 00:12:51;;;;;;;992.83;927.72;;;;;;;20.17;40.39;101854.44;690365;28;136506;-56
2022/08/08 00:13:18;;;;;;;1002.80;937.40;;;;;;;20.18;40.07;101858.88;691591;28;136475;-57
2022/08/08 00:13:42;;;;;;;989.38;924.53;;;;;;;20.14;40.27;101852.97;689457;28;137600;-55
2022/08/08 00:14:07;;;;;;;995.83;930.72;;;;;;;20.16;40.06;101858.25;690327;28;90770;-56
2022/08/08 00:14:41;;;;;;;1000.38;935.08;;;;;;;20.14;40.21;101860.34;689711;28;114601;-57
2022/08/08 00:15:10;;;;;;;990.60;925.60;;;;;;;20.11;40.33;101849.81;687629;28;160686;-55
2022/08/08 00:15:35;;;;;;;1001.42;936.03;;;;;;;20.11;40.43;101860.78;688982;28;137801;-57
2022/08/08 00:16:01;;;;;;;990.67;925.78;;;;;;;20.10;40.41;101859.09;688612;28;113416;-56
2022/08/08 00:16:26;;;;;;;989.35;924.55;;;;;;;20.07;40.48;101860.38;688617;28;138101;-56
2022/08/08 00:16:54;;;;;;;995.15;930.05;;;;;;;20.07;40.62;101863.09;689287;28;90727;-58
2022/08/08 00:17:18;;;;;;;994.95;929.75;;;;;;;20.05;40.50;101854.25;687547;28;160907;-57
2022/08/08 00:17:44;;;;;;;993.67;928.58;;;;;;;20.06;40.72;101869.66;689473;28;113778;-59
2022/08/08 00:18:09;;;;;;;988.38;923.60;;;;;;;20.04;40.54;101855.31;691466;28;138536;-58
2022/08/08 00:18:39;;;;;;;1001.47;936.08;;;;;;;20.05;40.75;101861.66;694165;28;64121;-57
2022/08/08 00:19:08;;;;;;;999.92;934.67;;;;;;;20.05;40.63;101857.00;691317;28;136109;-57
2022/08/08 00:19:33;;;;;;;991.42;926.47;;;;;;;20.05;40.79;101862.50;691523;28;137862;-54
2022/08/08 00:20:00;;;;;;;995.60;930.40;;;;;;;20.05;40.77;101867.97;691393;28;137770;-56
2022/08/08 00:20:25;;;;;;;997.05;931.90;;;;;;;20.02;40.71;101862.91;690648;28;161038;-57
2022/08/08 00:20:50;;;;;;;989.55;924.65;;;;;;;20.05;40.92;101861.66;691497;28;138091;-57
2022/08/08 00:21:17;;;;;;;983.28;918.58;;;;;;;20.04;40.80;101865.44;689659;28;115910;-57
2022/08/08 00:21:41;;;;;;;981.35;916.80;;;;;;;20.01;40.77;101861.22;688785;28;138869;-55
2022/08/08 00:22:06;;;;;;;987.40;922.47;;;;;;;20.02;40.74;101857.44;687304;28;133981;-56
2022/08/08 00:22:29;;;;;;;986.00;921.30;;;;;;;20.01;41.14;101854.91;690282;28;93085;-57
2022/08/08 00:22:54;;;;;;;986.08;921.35;;;;;;;20.02;40.64;101856.59;691880;28;90714;-56
2022/08/08 00:23:28;;;;;;;984.05;919.35;;;;;;;20.02;40.84;101862.06;692371;28;115124;-56
2022/08/08 00:23:52;;;;;;;991.85;926.85;;;;;;;20.01;40.87;101861.22;691414;28;137713;-56
2022/08/08 00:24:16;;;;;;;991.55;926.58;;;;;;;20.01;40.77;101863.97;691885;28;68326;-55
2022/08/08 00:24:42;;;;;;;983.38;918.67;;;;;;;20.01;41.04;101854.91;691288;28;113503;-56
2022/08/08 00:25:09;;;;;;;985.25;920.47;;;;;;;20.00;40.65;101854.06;691427;28;136397;-56
2022/08/08 00:25:35;;;;;;;988.05;923.20;;;;;;;20.01;40.99;101857.63;691620;28;138022;-57
2022/08/08 00:25:58;;;;;;;992.95;927.95;;;;;;;19.99;40.77;101858.69;691498;28;138147;-58
2022/08/08 00:26:24;;;;;;;992.38;927.42;;;;;;;19.98;40.89;101859.75;694003;28;69387;-56
2022/08/08 00:26:52;;;;;;;991.65;926.67;;;;;;;20.00;40.61;101859.56;690626;28;136634;-55
2022/08/08 00:27:15;;;;;;;989.50;924.47;;;;;;;19.98;41.00;101857.03;690492;28;161844;-57
2022/08/08 00:27:42;;;;;;;991.38;926.38;;;;;;;19.98;41.06;101861.63;694559;28;67240;-56
2022/08/08 00:28:06;;;;;;;995.33;930.20;;;;;;;19.97;41.04;101857.22;689793;28;138048;-57
2022/08/08 00:28:33;;;;;;;987.92;923.08;;;;;;;19.97;41.19;101859.97;696527;28;70596;-58
2022/08/08 00:29:00;;;;;;;998.25;932.95;;;;;;;19.97;41.15;101860.81;693544;28;138475;-57
2022/08/08 00:29:30;;;;;;;988.75;923.90;;;;;;;19.97;40.99;101852.59;694242;28;136851;-59
2022/08/08 00:29:57;;;;;;;999.85;934.53;;;;;;;19.98;40.82;101859.75;693875;28;135986;-56
2022/08/08 00:30:25;;;;;;;1003.17;937.70;;;;;;;19.98;41.03;101856.16;695498;28;92294;-58
2022/08/08 00:30:53;;;;;;;984.00;919.30;;;;;;;19.98;41.09;101858.91;690830;28;137894;-57
2022/08/08 00:31:17;;;;;;;1000.20;934.85;;;;;;;19.97;41.10;101858.06;691351;28;138670;-59
2022/08/08 00:31:43;;;;;;;992.30;927.22;;;;;;;19.99;41.17;101860.59;692304;28;92130;-57
2022/08/08 00:32:09;;;;;;;998.23;932.90;;;;;;;20.00;41.07;101859.56;689356;28;157694;-56
2022/08/08 00:32:45;;;;;;;993.70;928.55;;;;;;;20.00;40.98;101856.81;688513;28;138414;-58
2022/08/08 00:33:12;;;;;;;989.25;924.35;;;;;;;19.99;40.67;101853.19;686975;28;158729;-58
2022/08/08 00:33:43;;;;;;;988.95;924.10;;;;;;;19.99;40.99;101857.84;691872;28;92265;-57
2022/08/08 00:35:20;;;;;;;990.20;925.20;;;;;;;19.94;41.00;101857.66;691274;28;135970;-57
2022/08/08 00:35:47;;;;;;;1001.85;936.45;;;;;;;19.95;41.13;101862.06;680348;28;136005;-57
2022/08/08 00:36:14;;;;;;;988.15;923.22;;;;;;;19.95;41.37;101860.19;691568;28;136283;-56
2022/08/08 00:36:41;;;;;;;1001.92;936.50;;;;;;;19.94;41.33;101858.50;685775;28;137968;-58
2022/08/08 00:37:06;;;;;;;1000.83;935.33;;;;;;;19.94;40.98;101855.75;680550;28;156830;-55
2022/08/08 00:37:34;;;;;;;996.92;931.65;;;;;;;19.92;41.08;101854.25;685548;28;115093;-58
2022/08/08 00:38:16;;;;;;;1003.95;938.47;;;;;;;19.92;41.28;101854.25;685848;28;137884;-59
2022/08/08 00:38:43;;;;;;;995.35;930.35;;;;;;;19.92;41.10;101866.09;687952;28;137313;-58
2022/08/08 00:39:14;;;;;;;980.03;915.42;;;;;;;19.92;41.26;101859.75;688407;28;138082;-58
2022/08/08 00:39:49;;;;;;;983.58;918.97;;;;;;;19.91;41.29;101861.66;688185;28;136536;-56
2022/08/08 00:40:54;;;;;;;992.88;927.92;;;;;;;19.91;41.49;101860.81;688652;28;137553;-57
2022/08/08 00:42:07;;;;;;;976.40;912.03;;;;;;;19.90;41.23;101859.13;677564;29;138318;-57
2022/08/08 00:42:59;;;;;;;992.40;927.42;;;;;;;19.86;41.10;101864.19;677713;28;158134;-58
2022/08/08 00:43:52;;;;;;;989.47;924.58;;;;;;;19.84;41.41;101862.72;676532;28;137960;-58
2022/08/08 00:45:00;;;;;;;999.65;934.38;;;;;;;19.80;41.39;101849.44;677114;28;137537;-58
2022/08/08 00:46:06;;;;;;;979.33;914.72;;;;;;;19.77;41.58;101860.81;682611;28;137517;-59
2022/08/08 00:46:56;;;;;;;988.47;923.63;;;;;;;19.78;41.40;101861.66;677717;29;138304;-57
2022/08/08 00:48:01;;;;;;;1001.45;935.85;;;;;;;19.79;41.58;101864.19;678707;28;157485;-54
2022/08/08 00:49:05;;;;;;;988.15;923.25;;;;;;;19.78;41.78;101862.50;680618;28;137563;-55
2022/08/08 00:49:40;;;;;;;1001.95;936.55;;;;;;;19.77;41.64;101860.81;685073;28;158891;-53
2022/08/08 00:50:36;;;;;;;984.72;919.92;;;;;;;19.80;41.67;101863.13;685832;28;135800;-56
2022/08/08 00:51:16;;;;;;;993.30;928.25;;;;;;;19.83;41.54;101869.22;691363;28;136059;-54
2022/08/08 00:52:08;;;;;;;997.38;932.13;;;;;;;19.83;41.47;101863.75;691416;28;137698;-54
2022/08/08 00:52:41;;;;;;;1002.92;937.47;;;;;;;19.79;41.34;101864.19;687130;28;157313;-54
2022/08/08 00:53:11;;;;;;;992.40;927.30;;;;;;;19.81;41.29;101863.97;681905;28;160151;-52
2022/08/08 00:53:52;;;;;;;989.60;924.67;;;;;;;19.80;41.51;101860.38;683147;28;135972;-51
2022/08/08 00:55:01;;;;;;;982.13;917.53;;;;;;;19.80;41.45;101860.38;680568;28;137353;-56
2022/08/08 00:56:00;;;;;;;981.95;917.25;;;;;;;19.76;41.57;101861.84;672347;29;138517;-54
2022/08/08 00:56:42;;;;;;;988.05;923.15;;;;;;;19.73;41.47;101854.06;685534;28;111433;-56
2022/08/08 00:57:47;;;;;;;926.53;863.50;;;;;;;19.71;41.51;101856.13;680755;28;157911;-54
2022/08/08 00:58:33;;;;;;;984.63;919.80;;;;;;;19.70;41.41;101867.31;674962;29;137598;-53
2022/08/08 00:59:57;;;;;;;975.63;911.05;;;;;;;19.70;41.64;101851.72;675629;29;135892;-53
2022/08/08 01:00:26;;;;;;;984.22;919.42;;;;;;;19.71;41.77;101858.03;675704;29;136018;-57
2022/08/08 01:01:04;;;;;;;907.38;845.05;;;;;;;19.72;41.59;101860.56;674897;29;137589;-53
2022/08/08 01:01:31;;;;;;;947.42;883.90;;;;;;;19.71;41.54;101861.63;674717;29;135983;-52
2022/08/08 01:02:19;;;;;;;977.25;912.67;;;;;;;19.71;41.62;101856.13;672857;29;156293;-57
2022/08/08 01:03:08;;;;;;;986.53;921.72;;;;;;;19.71;41.37;101852.56;677686;28;135990;-55
2022/08/08 01:04:01;;;;;;;988.53;923.67;;;;;;;19.72;41.53;101854.25;686348;28;137714;-53
2022/08/08 01:04:54;;;;;;;1006.17;940.58;;;;;;;19.73;41.73;101859.53;678039;28;137432;-55
2022/08/08 01:05:58;;;;;;;997.35;932.10;;;;;;;19.75;41.42;101862.06;688260;28;135972;-53
2022/08/08 01:06:50;;;;;;;1009.53;943.85;;;;;;;19.72;41.59;101866.06;674774;29;135976;-54
2022/08/08 01:07:47;;;;;;;1004.97;939.35;;;;;;;19.73;41.60;101861.41;681489;28;156166;-55
2022/08/08 01:08:42;;;;;;;1000.42;935.10;;;;;;;19.72;41.71;101860.56;675300;29;135992;-53
2022/08/08 01:09:50;;;;;;;1003.75;938.28;;;;;;;19.72;41.51;101857.84;677561;29;137666;-53
2022/08/08 01:10:50;;;;;;;992.25;927.28;;;;;;;19.71;41.60;101863.53;679266;28;138990;-52
2022/08/08 01:11:55;;;;;;;999.65;934.35;;;;;;;19.72;41.69;101860.56;685699;28;136785;-53
2022/08/08 01:12:41;;;;;;;998.95;933.63;;;;;;;19.72;41.75;101859.75;680479;28;157221;-54
2022/08/08 01:13:50;;;;;;;989.95;924.95;;;;;;;19.66;41.83;101855.94;687084;28;136263;-52
2022/08/08 01:14:44;;;;;;;983.15;918.47;;;;;;;19.63;41.86;101859.94;687593;28;138033;-52
2022/08/08 01:15:50;;;;;;;977.53;913.03;;;;;;;19.62;42.12;101852.78;673921;29;160654;-52
2022/08/08 01:16:44;;;;;;;981.65;917.05;;;;;;;19.60;42.50;101862.25;678420;28;137816;-54
2022/08/08 01:17:41;;;;;;;983.28;918.40;;;;;;;19.58;42.19;101865.22;683163;28;159703;-56
2022/08/08 01:18:44;;;;;;;991.38;926.28;;;;;;;19.56;41.99;101867.31;683401;28;137719;-52
2022/08/08 01:19:40;;;;;;;986.03;921.13;;;;;;;19.53;42.06;101862.25;681559;28;158946;-57
2022/08/08 01:20:35;;;;;;;995.95;930.63;;;;;;;19.53;42.14;101864.13;682477;28;137770;-55
2022/08/08 01:21:14;;;;;;;994.05;928.85;;;;;;;19.52;41.94;101863.31;681369;28;137387;-55
2022/08/08 01:22:01;;;;;;;982.55;917.80;;;;;;;19.52;42.00;101868.78;680335;28;137556;-51
2022/08/08 01:23:10;;;;;;;984.40;919.65;;;;;;;19.51;41.85;101861.59;677181;28;157332;-54
2022/08/08 01:24:23;;;;;;;980.17;915.63;;;;;;;19.51;42.12;101863.50;674885;29;137429;-51
2022/08/08 01:25:00;;;;;;;977.40;912.90;;;;;;;19.51;41.96;101861.59;672266;29;137595;-55
2022/08/08 01:25:54;;;;;;;978.13;913.60;;;;;;;19.51;42.07;101858.88;669254;29;159003;-57
2022/08/08 01:26:39;;;;;;;983.55;918.83;;;;;;;19.51;41.99;101858.88;672116;29;137692;-56
2022/08/08 01:27:14;;;;;;;990.17;925.08;;;;;;;19.50;42.07;101859.94;672530;28;157305;-55
2022/08/08 01:28:12;;;;;;;456.50;356.05;;;;;;;19.50;42.19;101856.34;679698;28;137559;-54
2022/08/08 01:28:48;;;;;;;452.52;345.08;;;;;;;19.47;42.01;101851.28;683002;28;137427;-51
2022/08/08 01:29:31;;;;;;;461.27;393.83;;;;;;;19.45;41.94;101860.56;682526;28;136034;-57
2022/08/08 01:30:24;;;;;;;524.45;471.67;;;;;;;19.45;42.12;101852.34;685345;28;137671;-55
2022/08/08 01:31:12;;;;;;;578.22;524.30;;;;;;;19.43;42.05;101853.59;685522;28;137377;-55
2022/08/08 01:32:03;;;;;;;608.20;553.72;;;;;;;19.42;42.23;101854.66;685994;28;137468;-56
2022/08/08 01:33:02;;;;;;;652.88;597.40;;;;;;;19.39;42.56;101852.34;672639;28;157407;-52
2022/08/08 01:33:48;;;;;;;713.55;656.75;;;;;;;19.35;42.53;101853.81;683024;28;137624;-51
2022/08/08 01:34:59;;;;;;;766.40;708.20;;;;;;;19.32;42.50;101848.75;683289;28;137680;-51
2022/08/08 01:35:41;;;;;;;812.47;753.08;;;;;;;19.28;42.60;101853.81;676920;28;137954;-50
2022/08/08 01:36:49;;;;;;;811.38;751.97;;;;;;;19.26;42.38;101859.50;674849;29;137868;-56
2022/08/08 01:37:44;;;;;;;855.38;794.67;;;;;;;19.25;42.55;101859.69;671719;29;156684;-53
2022/08/08 01:38:27;;;;;;;855.25;794.65;;;;;;;19.25;42.61;101848.75;684538;28;136193;-52
2022/08/08 01:39:15;;;;;;;865.03;804.13;;;;;;;19.26;42.66;101850.41;682910;28;137650;-51
2022/08/08 01:39:54;;;;;;;874.72;813.55;;;;;;;19.27;42.62;101852.94;679690;28;137637;-52
2022/08/08 01:40:22;;;;;;;875.83;814.63;;;;;;;19.30;42.34;101853.59;682743;28;138445;-55
2022/08/08 01:40:51;;;;;;;880.97;819.60;;;;;;;19.29;42.41;101849.16;681529;28;138029;-51
2022/08/08 01:41:20;;;;;;;885.65;824.15;;;;;;;19.32;42.55;101849.56;683067;28;137972;-53
2022/08/08 01:41:51;;;;;;;904.47;842.30;;;;;;;19.30;42.28;101846.22;684173;28;137759;-51
2022/08/08 01:42:19;;;;;;;901.83;839.83;;;;;;;19.32;42.18;101854.22;682753;28;138042;-57
2022/08/08 01:42:47;;;;;;;912.67;850.38;;;;;;;19.31;42.49;101850.66;685842;28;136340;-55
2022/08/08 01:43:24;;;;;;;925.00;862.20;;;;;;;19.30;42.45;101848.13;685593;28;137634;-54
2022/08/08 01:43:48;;;;;;;920.20;857.53;;;;;;;19.25;42.39;101856.97;683126;28;138292;-56
2022/08/08 01:44:29;;;;;;;926.75;863.85;;;;;;;19.21;42.13;101851.03;682171;28;138015;-57
2022/08/08 01:44:58;;;;;;;927.00;864.20;;;;;;;19.21;42.31;101852.94;680206;28;136017;-57
2022/08/08 01:45:48;;;;;;;915.90;853.40;;;;;;;19.21;42.43;101853.75;680280;28;135922;-58
2022/08/08 01:46:29;;;;;;;938.37;875.17;;;;;;;19.22;41.80;101852.72;684195;28;158753;-54
2022/08/08 01:46:56;;;;;;;929.90;867.00;;;;;;;19.23;42.30;101854.41;687065;28;137789;-57
2022/08/08 01:47:32;;;;;;;937.47;874.20;;;;;;;19.26;42.09;101853.16;687086;28;138013;-56
2022/08/08 01:48:04;;;;;;;942.15;878.85;;;;;;;19.29;41.83;101851.91;684472;28;160839;-54
2022/08/08 01:48:42;;;;;;;937.15;874.05;;;;;;;19.31;41.81;101861.59;685378;28;137573;-57
2022/08/08 01:49:09;;;;;;;950.40;886.78;;;;;;;19.34;41.75;101854.84;682422;28;137154;-56
2022/08/08 01:49:43;;;;;;;946.97;883.40;;;;;;;19.26;41.77;101843.06;682151;28;161063;-58
2022/08/08 01:50:11;;;;;;;958.10;894.22;;;;;;;19.32;41.61;101849.56;682763;28;137379;-57
2022/08/08 01:50:45;;;;;;;959.25;895.35;;;;;;;19.38;41.56;101851.47;685761;28;136258;-56
2022/08/08 01:51:40;;;;;;;956.75;892.95;;;;;;;19.39;41.46;101860.56;685841;28;135983;-55
2022/08/08 01:52:08;;;;;;;960.17;896.10;;;;;;;19.30;41.52;101838.00;683794;28;156483;-56
2022/08/08 01:52:40;;;;;;;962.33;898.33;;;;;;;19.42;41.19;101858.25;683014;28;137911;-58
2022/08/08 01:53:17;;;;;;;946.25;882.78;;;;;;;19.41;41.05;101847.50;682901;28;137540;-58
2022/08/08 01:53:47;;;;;;;953.13;889.38;;;;;;;19.44;41.14;101852.56;685462;28;136008;-56
2022/08/08 01:54:14;;;;;;;958.22;894.40;;;;;;;19.44;41.33;101855.28;690881;28;137875;-55
2022/08/08 01:54:50;;;;;;;964.53;900.53;;;;;;;19.42;41.37;101847.28;687710;28;160982;-57
2022/08/08 01:55:17;;;;;;;972.50;908.10;;;;;;;19.41;41.26;101853.81;682839;28;137779;-58
2022/08/08 01:55:46;;;;;;;965.92;901.83;;;;;;;19.41;41.44;101850.22;685548;28;137690;-54
2022/08/08 01:56:16;;;;;;;953.17;889.50;;;;;;;19.43;41.49;101859.06;684516;28;160215;-57
2022/08/08 01:56:45;;;;;;;978.60;913.90;;;;;;;19.43;41.25;101848.94;685229;28;135699;-57
2022/08/08 01:57:17;;;;;;;977.85;913.15;;;;;;;19.41;41.55;101852.97;680539;28;157623;-57
2022/08/08 01:57:47;;;;;;;969.05;904.70;;;;;;;19.40;41.49;101852.13;685847;28;136126;-56
2022/08/08 01:58:22;;;;;;;975.95;911.42;;;;;;;19.39;41.49;101850.44;682832;28;132009;-59
2022/08/08 01:58:53;;;;;;;982.53;917.67;;;;;;;19.38;41.49;101848.75;682224;28;160798;-57
2022/08/08 01:59:45;;;;;;;969.67;905.35;;;;;;;19.36;41.69;101848.13;677449;29;138468;-57
2022/08/08 02:00:11;;;;;;;973.60;909.20;;;;;;;19.36;41.65;101853.59;683897;28;137724;-59
2022/08/08 02:00:48;;;;;;;980.28;915.58;;;;;;;19.37;41.75;101851.69;682670;28;136415;-57
2022/08/08 02:01:16;;;;;;;970.42;906.10;;;;;;;19.35;41.27;101846.41;682950;28;137833;-57
2022/08/08 02:01:59;;;;;;;978.80;914.20;;;;;;;19.36;41.35;101847.28;681030;28;137724;-56
2022/08/08 02:02:32;;;;;;;979.80;915.10;;;;;;;19.34;41.51;101850.22;677426;29;138644;-58
2022/08/08 02:03:15;;;;;;;972.00;907.60;;;;;;;19.35;41.41;101842.84;679787;28;136003;-58
2022/08/08 02:03:55;;;;;;;979.72;915.08;;;;;;;19.35;41.66;101845.59;680699;28;160773;-57
2022/08/08 02:04:21;;;;;;;957.53;893.60;;;;;;;19.38;41.30;101851.47;681575;28;137246;-58
2022/08/08 02:04:48;;;;;;;972.65;908.25;;;;;;;19.38;41.56;101848.75;684331;28;98453;-55
2022/08/08 02:05:22;;;;;;;969.17;904.90;;;;;;;19.38;41.51;101847.91;681563;28;161096;-57
2022/08/08 02:05:57;;;;;;;980.55;915.75;;;;;;;19.40;41.19;101843.91;686120;28;137750;-58
2022/08/08 02:06:30;;;;;;;967.30;902.95;;;;;;;19.41;41.52;101851.06;683390;28;160971;-58
2022/08/08 02:06:58;;;;;;;975.33;910.77;;;;;;;19.37;41.52;101849.81;680988;28;159214;-54
2022/08/08 02:07:28;;;;;;;980.60;915.78;;;;;;;19.36;41.73;101845.38;684153;28;137247;-57
2022/08/08 02:08:00;;;;;;;983.50;918.63;;;;;;;19.36;41.82;101842.63;680243;28;137725;-57
2022/08/08 02:08:31;;;;;;;976.22;911.63;;;;;;;19.36;41.78;101841.81;682501;28;137838;-57
2022/08/08 02:08:59;;;;;;;980.60;915.80;;;;;;;19.33;41.73;101842.22;682737;28;137402;-58
2022/08/08 02:09:36;;;;;;;986.55;921.65;;;;;;;19.30;41.62;101843.47;682674;28;136078;-58
2022/08/08 02:10:10;;;;;;;975.65;911.05;;;;;;;19.29;41.83;101843.69;682853;28;137397;-56
2022/08/08 02:10:45;;;;;;;986.25;921.33;;;;;;;19.26;41.84;101840.31;685593;28;137441;-55
2022/08/08 02:11:23;;;;;;;974.13;909.58;;;;;;;19.24;41.79;101841.56;685279;28;137687;-56
2022/08/08 02:11:46;;;;;;;985.20;920.30;;;;;;;19.24;41.91;101845.13;684827;28;137833;-58
2022/08/08 02:12:13;;;;;;;993.65;928.40;;;;;;;19.25;41.75;101837.78;684645;28;67571;-59
2022/08/08 02:12:43;;;;;;;998.42;933.00;;;;;;;19.24;41.60;101849.78;682425;28;136156;-58
2022/08/08 02:13:12;;;;;;;979.10;914.33;;;;;;;19.22;41.75;101844.50;680071;28;137827;-56
2022/08/08 02:13:41;;;;;;;990.05;924.90;;;;;;;19.25;41.52;101840.53;682575;28;59930;-55
2022/08/08 02:14:14;;;;;;;968.55;904.25;;;;;;;19.25;41.91;101837.78;684538;28;60909;-57
2022/08/08 02:14:41;;;;;;;976.75;912.15;;;;;;;19.25;41.71;101843.25;680284;28;137788;-57
2022/08/08 02:15:13;;;;;;;988.05;923.05;;;;;;;19.29;41.88;101851.91;683076;28;135783;-57
2022/08/08 02:15:44;;;;;;;973.92;909.38;;;;;;;19.30;41.52;101845.38;682730;28;137268;-56
2022/08/08 02:16:13;;;;;;;981.97;917.15;;;;;;;19.29;41.58;101847.25;685226;28;137889;-56
2022/08/08 02:16:48;;;;;;;986.38;921.33;;;;;;;19.32;41.48;101846.84;687015;28;137523;-58
2022/08/08 02:17:24;;;;;;;973.35;908.72;;;;;;;19.33;41.63;101844.97;685111;28;135919;-58
2022/08/08 02:17:58;;;;;;;987.78;922.78;;;;;;;19.32;41.65;101844.09;684583;28;158918;-57
2022/08/08 02:18:29;;;;;;;970.03;905.63;;;;;;;19.30;41.70;101848.13;685265;28;137834;-58
2022/08/08 02:18:58;;;;;;;979.80;915.08;;;;;;;19.28;41.70;101842.84;685660;28;137719;-57
2022/08/08 02:19:24;;;;;;;973.00;908.53;;;;;;;19.29;41.74;101846.41;685480;28;138164;-58
2022/08/08 02:19:49;;;;;;;976.13;911.50;;;;;;;19.29;41.63;101849.16;686496;28;115118;-58
2022/08/08 02:20:16;;;;;;;978.10;913.42;;;;;;;19.30;41.71;101853.59;684343;28;114706;-57
2022/08/08 02:22:30;;;;;;;989.80;924.72;;;;;;;19.28;41.82;101842.84;685687;28;138004;-58
2022/08/08 02:22:32;;;;;;;982.20;917.38;;;;;;;19.32;41.61;101846.84;683328;28;179900;-58
2022/08/08 02:23:02;;;;;;;993.97;928.65;;;;;;;19.25;41.71;101833.13;685177;28;137880;-57
2022/08/08 02:23:30;;;;;;;986.80;921.75;;;;;;;19.31;41.75;101850.66;687719;28;160630;-58
2022/08/08 02:23:57;;;;;;;996.10;930.63;;;;;;;19.32;41.76;101852.31;685140;28;137460;-57
2022/08/08 02:24:24;;;;;;;981.33;916.47;;;;;;;19.31;41.91;101847.91;685284;28;136375;-55
2022/08/08 02:24:50;;;;;;;981.28;916.47;;;;;;;19.31;41.69;101847.91;682816;28;137721;-57
2022/08/08 02:25:19;;;;;;;981.97;917.10;;;;;;;19.30;41.76;101848.94;682856;28;136337;-56
2022/08/08 02:25:48;;;;;;;980.20;915.42;;;;;;;19.29;41.51;101851.91;682790;28;160466;-57
2022/08/08 02:26:14;;;;;;;986.33;921.33;;;;;;;19.28;41.75;101851.06;684288;28;137853;-59
2022/08/08 02:26:44;;;;;;;980.60;915.80;;;;;;;19.26;41.69;101850.41;684799;28;161021;-57
2022/08/08 02:27:12;;;;;;;1005.20;939.30;;;;;;;19.26;41.87;101850.41;685731;28;157525;-57
2022/08/08 02:27:39;;;;;;;995.00;929.67;;;;;;;19.27;41.74;101849.38;687872;28;136204;-57
2022/08/08 02:28:04;;;;;;;984.50;919.55;;;;;;;19.25;41.71;101854.22;685234;28;138075;-58
2022/08/08 02:28:41;;;;;;;998.35;932.88;;;;;;;19.25;41.87;101855.03;682369;28;137894;-57
2022/08/08 02:29:17;;;;;;;991.83;926.60;;;;;;;19.26;41.68;101842.19;680196;28;137352;-58
2022/08/08 02:29:53;;;;;;;985.92;921.00;;;;;;;19.22;41.94;101851.88;680234;28;135974;-58
2022/08/08 02:30:19;;;;;;;974.45;909.88;;;;;;;19.25;41.46;101857.78;683644;28;137986;-56
2022/08/08 02:30:45;;;;;;;975.50;910.90;;;;;;;19.26;41.67;101853.16;686912;28;92201;-57
2022/08/08 02:31:14;;;;;;;973.78;909.22;;;;;;;19.25;41.68;101855.03;685624;28;138070;-56
2022/08/08 02:31:51;;;;;;;966.33;902.10;;;;;;;19.25;41.99;101859.69;684264;28;138001;-57
2022/08/08 02:32:34;;;;;;;978.15;913.45;;;;;;;19.25;41.78;101856.97;685075;28;156533;-57
2022/08/08 02:33:13;;;;;;;975.80;911.17;;;;;;;19.24;41.74;101850.63;685041;28;137019;-57
2022/08/08 02:33:41;;;;;;;968.53;904.15;;;;;;;19.25;41.75;101856.97;687757;28;137704;-56
2022/08/08 02:34:07;;;;;;;969.55;905.08;;;;;;;19.25;41.93;101852.31;688626;28;137948;-55
2022/08/08 02:34:39;;;;;;;946.08;882.40;;;;;;;19.24;41.95;101856.09;688418;28;139308;-58
2022/08/08 02:35:20;;;;;;;960.42;896.40;;;;;;;19.23;41.75;101856.28;690818;28;160161;-59
2022/08/08 02:35:59;;;;;;;975.00;910.40;;;;;;;19.20;41.77;101851.22;691397;28;137711;-54
2022/08/08 02:36:37;;;;;;;955.05;891.20;;;;;;;19.21;42.02;101855.66;688686;28;136027;-54
2022/08/08 02:37:05;;;;;;;882.22;820.53;;;;;;;19.19;41.99;101852.31;684012;28;155096;-51
2022/08/08 02:37:32;;;;;;;852.60;791.85;;;;;;;19.17;41.81;101851.66;685462;28;137687;-55
2022/08/08 02:38:16;;;;;;;836.83;776.45;;;;;;;19.16;41.89;101855.47;685561;28;138852;-54
2022/08/08 02:39:06;;;;;;;803.38;744.03;;;;;;;19.14;42.02;101852.94;685746;28;137139;-54
2022/08/08 02:39:45;;;;;;;767.88;709.38;;;;;;;19.13;42.22;101853.13;681022;28;137376;-59
2022/08/08 02:40:10;;;;;;;750.25;692.22;;;;;;;19.07;42.06;101839.22;680420;28;135756;-60
2022/08/08 02:40:40;;;;;;;748.58;690.58;;;;;;;19.11;42.16;101844.25;682839;28;137613;-56
2022/08/08 02:41:13;;;;;;;743.08;685.22;;;;;;;19.09;42.34;101850.81;680697;28;136260;-56
2022/08/08 02:42:11;;;;;;;737.37;679.63;;;;;;;19.06;42.44;101853.97;680084;28;158902;-56